createdAt,value
2018-05-11T00:01:08.799Z,6.03
2018-05-11T00:03:35.011Z,5.68
2018-05-11T00:06:01.237Z,5.50
2018-05-11T00:08:27.482Z,5.43
2018-05-11T00:10:53.731Z,5.85
2018-05-11T00:13:19.947Z,8.00
2018-05-11T00:15:46.159Z,6.82
2018-05-11T00:18:12.380Z,6.22
2018-05-11T00:20:38.614Z,6.50
2018-05-11T00:23:04.883Z,5.07
2018-05-11T00:25:31.112Z,6.55
2018-05-11T00:27:57.331Z,5.87
2018-05-11T00:30:23.543Z,5.40
2018-05-11T00:32:49.790Z,4.97
2018-05-11T00:35:16.021Z,6.47
2018-05-11T00:37:42.266Z,8.30
2018-05-11T00:40:08.872Z,5.75
2018-05-11T00:42:35.122Z,8.80
2018-05-11T00:45:01.349Z,6.75
2018-05-11T00:47:27.560Z,5.62
2018-05-11T00:49:53.803Z,4.62
2018-05-11T00:52:20.050Z,6.40
2018-05-11T00:54:46.635Z,5.00
2018-05-11T00:57:12.867Z,4.47
2018-05-11T00:59:39.079Z,5.35
2018-05-11T01:02:05.309Z,5.93
2018-05-11T01:04:31.528Z,4.47
2018-05-11T01:06:57.793Z,5.87
2018-05-11T01:09:23.985Z,5.40
2018-05-11T01:11:50.207Z,5.32
2018-05-11T01:14:16.430Z,4.90
2018-05-11T01:16:42.680Z,5.57
2018-05-11T01:19:08.903Z,4.90
2018-05-11T01:21:35.144Z,5.47
2018-05-11T01:24:01.362Z,5.50
2018-05-11T01:26:27.609Z,5.32
2018-05-11T01:28:53.816Z,4.90
2018-05-11T01:31:20.080Z,4.80
2018-05-11T01:33:46.275Z,5.35
2018-05-11T01:36:12.475Z,6.40
2018-05-11T01:38:38.705Z,6.82
2018-05-11T01:41:04.934Z,14.20
2018-05-11T01:43:31.169Z,17.05
2018-05-11T01:45:57.416Z,15.70
2018-05-11T01:48:23.632Z,12.25
2018-05-11T01:50:49.869Z,10.13
2018-05-11T01:53:16.140Z,8.55
2018-05-11T01:55:42.356Z,8.70
2018-05-11T01:58:08.580Z,9.95
2018-05-11T02:00:34.794Z,9.45
2018-05-11T02:03:01.018Z,8.05
2018-05-11T02:05:27.230Z,8.90
2018-05-11T02:07:53.458Z,10.27
2018-05-11T02:10:20.334Z,9.90
2018-05-11T02:12:46.562Z,11.40
2018-05-11T02:15:12.800Z,11.20
2018-05-11T02:17:39.418Z,10.20
2018-05-11T02:20:05.649Z,12.88
2018-05-11T02:22:31.898Z,13.18
2018-05-11T02:24:58.112Z,10.75
2018-05-11T02:27:24.348Z,10.23
2018-05-11T02:29:50.640Z,8.50
2018-05-11T02:32:16.873Z,9.80
2018-05-11T02:34:43.079Z,5.90
2018-05-11T02:37:09.322Z,5.72
2018-05-11T02:39:35.559Z,7.78
2018-05-11T02:42:01.768Z,5.50
2018-05-11T02:44:27.969Z,6.35
2018-05-11T02:46:54.552Z,5.40
2018-05-11T02:49:20.787Z,4.50
2018-05-11T02:51:46.999Z,5.60
2018-05-11T02:54:13.211Z,5.30
2018-05-11T02:56:46.265Z,4.80
2018-05-11T02:59:12.425Z,4.75
2018-05-11T03:01:38.631Z,5.70
2018-05-11T03:04:04.860Z,4.12
2018-05-11T03:06:31.102Z,5.80
2018-05-11T03:08:57.351Z,4.62
2018-05-11T03:11:23.540Z,5.57
2018-05-11T03:13:50.120Z,8.07
2018-05-11T03:16:16.351Z,6.40
2018-05-11T03:18:42.687Z,4.30
2018-05-11T03:21:08.797Z,6.03
2018-05-11T03:23:36.793Z,5.12
2018-05-11T03:26:03.680Z,6.57
2018-05-11T03:28:35.393Z,5.20
2018-05-11T03:33:47.051Z,6.12
2018-05-11T03:36:13.292Z,5.00
2018-05-11T03:38:39.535Z,5.90
2018-05-11T03:41:05.721Z,5.10
2018-05-11T03:43:31.944Z,5.30
2018-05-11T03:45:58.144Z,5.87
2018-05-11T03:48:24.400Z,4.80
2018-05-11T03:50:50.623Z,5.28
2018-05-11T03:53:16.852Z,6.07
2018-05-11T03:55:43.053Z,5.40
2018-05-11T03:58:09.309Z,5.37
2018-05-11T04:00:35.655Z,5.90
2018-05-11T04:03:14.393Z,6.15
2018-05-11T04:05:52.887Z,6.65
2018-05-11T04:08:31.592Z,6.07
2018-05-11T04:10:57.787Z,7.35
2018-05-11T04:13:24.073Z,6.62
2018-05-11T04:15:51.627Z,10.35
2018-05-11T04:18:17.854Z,5.93
2018-05-11T04:20:44.522Z,6.60
2018-05-11T04:23:13.620Z,6.53
2018-05-11T04:25:42.855Z,5.78
2018-05-11T04:28:09.105Z,6.40
2018-05-11T04:30:35.332Z,7.05
2018-05-11T04:33:01.563Z,5.75
2018-05-11T04:35:27.866Z,8.73
2018-05-11T04:37:54.067Z,5.80
2018-05-11T04:40:20.311Z,5.90
2018-05-11T04:42:46.514Z,6.80
2018-05-11T04:45:12.764Z,6.78
2018-05-11T04:47:39.000Z,5.97
2018-05-11T04:50:06.009Z,6.37
2018-05-11T04:52:33.250Z,6.00
2018-05-11T04:55:00.160Z,6.20
2018-05-11T04:57:26.365Z,6.80
2018-05-11T04:59:52.631Z,8.65
2018-05-11T05:02:19.206Z,6.78
2018-05-11T05:04:45.429Z,7.35
2018-05-11T05:07:11.669Z,6.12
2018-05-11T05:09:37.917Z,7.30
2018-05-11T05:12:11.060Z,6.37
2018-05-11T05:14:37.297Z,7.00
2018-05-11T05:17:03.502Z,8.10
2018-05-11T05:19:35.830Z,7.87
2018-05-11T05:22:04.715Z,7.70
2018-05-11T05:24:30.935Z,7.87
2018-05-11T05:26:57.163Z,10.18
2018-05-11T05:29:23.417Z,7.53
2018-05-11T05:31:49.632Z,8.25
2018-05-11T05:34:16.499Z,8.63
2018-05-11T05:36:43.886Z,7.35
2018-05-11T05:39:11.148Z,9.23
2018-05-11T05:41:37.371Z,8.85
2018-05-11T05:44:03.681Z,7.78
2018-05-11T05:46:30.277Z,8.63
2018-05-11T05:48:56.495Z,8.48
2018-05-11T05:51:22.731Z,7.68
2018-05-11T05:53:48.964Z,7.72
2018-05-11T05:56:15.196Z,7.90
2018-05-11T05:58:41.439Z,9.13
2018-05-11T06:01:07.689Z,9.07
2018-05-11T06:03:35.084Z,9.50
2018-05-11T06:06:01.338Z,11.40
2018-05-11T06:08:27.557Z,14.25
2018-05-11T06:10:54.008Z,15.73
2018-05-11T06:13:20.178Z,16.15
2018-05-11T06:15:46.521Z,16.90
2018-05-11T06:18:12.684Z,13.62
2018-05-11T06:20:38.953Z,12.75
2018-05-11T06:23:05.566Z,10.95
2018-05-11T06:25:31.816Z,11.80
2018-05-11T06:27:58.195Z,12.32
2018-05-11T06:30:24.462Z,11.60
2018-05-11T06:32:50.693Z,12.02
2018-05-11T06:35:16.936Z,11.95
2018-05-11T06:37:43.222Z,14.32
2018-05-11T06:40:09.462Z,14.73
2018-05-11T06:42:36.533Z,15.80
2018-05-11T06:45:04.080Z,15.48
2018-05-11T06:47:31.312Z,17.40
2018-05-11T06:49:57.627Z,19.48
2018-05-11T06:52:23.904Z,17.20
2018-05-11T06:54:50.538Z,17.20
2018-05-11T06:57:16.789Z,19.02
2018-05-11T06:59:43.035Z,18.83
2018-05-11T07:02:09.308Z,19.33
2018-05-11T07:04:35.513Z,20.58
2018-05-11T07:07:01.770Z,20.92
2018-05-11T07:09:28.002Z,21.12
2018-05-11T07:11:54.228Z,19.83
2018-05-11T07:14:20.507Z,23.65
2018-05-11T07:16:47.600Z,22.75
2018-05-11T07:19:13.890Z,23.65
2018-05-11T07:21:40.105Z,23.87
2018-05-11T07:24:06.375Z,27.92
2018-05-11T07:26:32.603Z,28.47
2018-05-11T07:28:58.828Z,27.62
2018-05-11T07:31:25.126Z,31.62
2018-05-11T07:33:51.351Z,29.70
2018-05-11T07:36:17.606Z,28.83
2018-05-11T07:38:43.857Z,25.80
2018-05-11T07:41:10.081Z,28.85
2018-05-11T07:43:36.342Z,29.33
2018-05-11T07:46:02.597Z,29.30
2018-05-11T07:48:28.851Z,30.00
2018-05-11T07:50:55.124Z,30.10
2018-05-11T07:53:21.315Z,26.23
2018-05-11T07:55:47.579Z,25.13
2018-05-11T07:58:13.811Z,31.37
2018-05-11T08:00:40.439Z,34.80
2018-05-11T08:03:06.661Z,31.30
2018-05-11T08:05:39.328Z,28.47
2018-05-11T08:08:07.189Z,28.87
2018-05-11T08:10:33.422Z,28.57
2018-05-11T08:12:59.684Z,30.30
2018-05-11T08:15:25.958Z,27.27
2018-05-11T08:17:52.223Z,30.20
2018-05-11T08:20:18.446Z,27.30
2018-05-11T08:22:44.695Z,29.50
2018-05-11T08:25:10.933Z,32.53
2018-05-11T08:27:40.664Z,24.63
2018-05-11T08:30:07.853Z,24.80
2018-05-11T08:32:34.077Z,28.00
2018-05-11T08:35:00.316Z,29.10
2018-05-11T08:37:26.567Z,28.40
2018-05-11T08:39:53.418Z,32.47
2018-05-11T08:42:19.681Z,30.17
2018-05-11T08:44:45.951Z,28.60
2018-05-11T08:47:12.621Z,26.13
2018-05-11T08:49:38.860Z,28.33
2018-05-11T08:52:05.090Z,26.30
2018-05-11T08:54:31.330Z,27.37
2018-05-11T08:56:57.555Z,26.43
2018-05-11T08:59:23.819Z,25.90
2018-05-11T09:01:50.046Z,26.93
2018-05-11T09:04:16.350Z,24.90
2018-05-11T09:06:42.611Z,24.90
2018-05-11T09:09:08.836Z,24.13
2018-05-11T09:11:35.086Z,25.17
2018-05-11T09:14:01.378Z,23.37
2018-05-11T09:16:27.648Z,24.43
2018-05-11T09:18:54.231Z,21.07
2018-05-11T09:21:20.506Z,22.00
2018-05-11T09:23:46.713Z,21.57
2018-05-11T09:26:12.949Z,24.20
2018-05-11T09:28:39.191Z,20.33
2018-05-11T09:31:05.437Z,21.60
2018-05-11T09:33:31.648Z,19.33
2018-05-11T09:35:57.928Z,21.80
2018-05-11T09:38:24.142Z,19.93
2018-05-11T09:40:50.391Z,20.13
2018-05-11T09:43:16.654Z,20.17
2018-05-11T09:45:43.264Z,21.87
2018-05-11T09:48:11.217Z,18.97
2018-05-11T09:50:38.364Z,19.83
2018-05-11T09:53:04.608Z,20.33
2018-05-11T09:55:30.869Z,18.63
2018-05-11T09:57:57.474Z,20.60
2018-05-11T10:00:25.519Z,21.03
2018-05-11T10:02:51.757Z,19.40
2018-05-11T10:05:17.963Z,20.07
2018-05-11T10:07:45.220Z,18.27
2018-05-11T10:10:11.416Z,20.73
2018-05-11T10:12:37.647Z,20.40
2018-05-11T10:15:03.907Z,23.13
2018-05-11T10:17:30.132Z,23.70
2018-05-11T10:19:56.367Z,23.00
2018-05-11T10:22:22.612Z,20.10
2018-05-11T10:24:48.824Z,20.93
2018-05-11T10:27:15.065Z,30.07
2018-05-11T10:29:41.308Z,24.70
2018-05-11T10:32:09.589Z,22.07
2018-05-11T10:34:35.985Z,23.10
2018-05-11T10:37:02.132Z,24.57
2018-05-11T10:39:29.842Z,22.47
2018-05-11T10:41:56.471Z,26.43
2018-05-11T10:44:22.718Z,19.77
2018-05-11T10:46:49.467Z,20.00
2018-05-11T10:49:16.672Z,19.93
2018-05-11T10:51:42.900Z,23.77
2018-05-11T10:54:09.177Z,22.23
2018-05-11T10:56:35.465Z,21.47
2018-05-11T10:59:01.766Z,22.67
2018-05-11T11:01:28.044Z,21.20
2018-05-11T11:03:54.696Z,23.03
2018-05-11T11:06:21.037Z,19.80
2018-05-11T11:08:47.657Z,17.93
2018-05-11T11:11:14.316Z,21.10
2018-05-11T11:13:41.006Z,18.83
2018-05-11T11:16:07.499Z,20.83
2018-05-11T11:18:34.400Z,18.67
2018-05-11T11:21:00.842Z,24.27
2018-05-11T11:23:27.467Z,18.93
2018-05-11T11:25:54.283Z,20.03
2018-05-11T11:28:21.973Z,20.23
2018-05-11T11:30:48.961Z,20.10
2018-05-11T11:33:17.853Z,20.87
2018-05-11T11:35:44.095Z,23.27
2018-05-11T11:38:10.337Z,21.10
2018-05-11T11:40:36.604Z,21.60
2018-05-11T11:43:02.859Z,19.80
2018-05-11T11:45:29.471Z,20.70
2018-05-11T11:47:55.689Z,23.73
2018-05-11T11:50:21.963Z,20.90
2018-05-11T11:52:48.554Z,22.90
2018-05-11T11:55:14.783Z,23.03
2018-05-11T11:57:40.993Z,19.03
2018-05-11T12:00:07.245Z,20.17
2018-05-11T12:02:33.509Z,26.03
2018-05-11T12:05:00.119Z,23.33
2018-05-11T12:07:26.367Z,20.70
2018-05-11T12:09:52.982Z,23.13
2018-05-11T12:12:19.233Z,18.60
2018-05-11T12:14:45.833Z,22.60
2018-05-11T12:17:12.079Z,16.47
2018-05-11T12:19:38.321Z,17.20
2018-05-11T12:22:04.907Z,17.73
2018-05-11T12:24:31.160Z,21.67
2018-05-11T12:26:57.428Z,19.27
2018-05-11T12:29:24.016Z,19.90
2018-05-11T12:31:50.249Z,19.00
2018-05-11T12:34:16.504Z,17.93
2018-05-11T12:36:43.091Z,19.13
2018-05-11T12:39:09.340Z,17.20
2018-05-11T12:41:35.559Z,17.57
2018-05-11T12:44:01.816Z,17.17
2018-05-11T12:46:28.074Z,15.00
2018-05-11T12:48:54.325Z,16.07
2018-05-11T12:51:20.564Z,16.10
2018-05-11T12:53:46.794Z,14.50
2018-05-11T12:56:13.057Z,15.03
2018-05-11T12:58:40.231Z,15.47
2018-05-11T13:01:06.839Z,16.27
2018-05-11T13:03:33.060Z,16.03
2018-05-11T13:05:59.300Z,15.17
2018-05-11T13:08:25.566Z,18.23
2018-05-11T13:10:51.792Z,14.80
2018-05-11T13:13:18.036Z,14.50
2018-05-11T13:15:44.300Z,15.37
2018-05-11T13:18:10.598Z,15.17
2018-05-11T13:20:36.928Z,15.83
2018-05-11T13:23:03.089Z,14.63
2018-05-11T13:25:29.345Z,16.13
2018-05-11T13:27:55.961Z,15.30
2018-05-11T13:30:22.259Z,15.90
2018-05-11T13:32:48.475Z,15.03
2018-05-11T13:35:14.735Z,15.10
2018-05-11T13:37:40.944Z,15.10
2018-05-11T13:40:07.209Z,16.00
2018-05-11T13:42:34.288Z,17.30
2018-05-11T13:45:00.562Z,15.40
2018-05-11T13:47:26.781Z,16.43
2018-05-11T13:49:53.050Z,16.30
2018-05-11T13:52:19.269Z,16.73
2018-05-11T13:54:45.549Z,16.57
2018-05-11T13:57:11.792Z,15.30
2018-05-11T13:59:38.062Z,16.27
2018-05-11T14:02:04.352Z,16.80
2018-05-11T14:04:30.648Z,16.63
2018-05-11T14:06:56.873Z,16.77
2018-05-11T14:09:23.462Z,15.40
2018-05-11T14:11:49.695Z,15.60
2018-05-11T14:14:15.937Z,14.90
2018-05-11T14:16:42.190Z,14.27
2018-05-11T14:19:08.792Z,16.00
2018-05-11T14:21:35.015Z,15.97
2018-05-11T14:24:01.235Z,13.83
2018-05-11T14:26:27.454Z,15.60
2018-05-11T14:28:53.700Z,14.90
2018-05-11T14:31:20.020Z,16.63
2018-05-11T14:33:46.266Z,15.77
2018-05-11T14:36:12.523Z,16.03
2018-05-11T14:38:39.139Z,15.13
2018-05-11T14:41:05.399Z,16.00
2018-05-11T14:43:31.617Z,15.07
2018-05-11T14:45:57.859Z,15.17
2018-05-11T14:48:24.513Z,16.10
2018-05-11T14:50:50.748Z,17.00
2018-05-11T14:53:17.003Z,17.30
2018-05-11T14:55:43.229Z,17.57
2018-05-11T14:58:09.432Z,16.13
2018-05-11T15:00:35.664Z,16.60
2018-05-11T15:03:01.895Z,15.73
2018-05-11T15:05:28.903Z,15.87
2018-05-11T15:07:55.137Z,17.23
2018-05-11T15:10:21.400Z,15.17
2018-05-11T15:12:47.700Z,14.30
2018-05-11T15:15:13.954Z,15.90
2018-05-11T15:17:40.226Z,16.63
2018-05-11T15:20:06.472Z,17.03
2018-05-11T15:22:32.768Z,15.87
2018-05-11T15:24:58.998Z,16.53
2018-05-11T15:27:25.227Z,17.53
2018-05-11T15:29:51.458Z,17.23
2018-05-11T15:32:17.744Z,18.47
2018-05-11T15:34:43.991Z,15.07
2018-05-11T15:37:10.214Z,18.50
2018-05-11T15:39:36.460Z,17.43
2018-05-11T15:42:02.716Z,18.00
2018-05-11T15:44:28.928Z,15.43
2018-05-11T15:46:56.416Z,16.67
2018-05-11T15:49:22.637Z,18.40
2018-05-11T15:51:48.911Z,19.00
2018-05-11T15:54:15.130Z,16.57
2018-05-11T15:56:41.392Z,16.50
2018-05-11T15:59:07.664Z,30.60
2018-05-11T16:01:33.847Z,22.63
2018-05-11T16:04:00.110Z,18.27
2018-05-11T16:06:26.789Z,20.43
2018-05-11T16:08:53.014Z,52.03
2018-05-11T16:11:19.278Z,21.93
2018-05-11T16:13:45.496Z,20.33
2018-05-11T16:16:11.795Z,27.67
2018-05-11T16:18:38.072Z,24.60
2018-05-11T16:21:04.311Z,30.27
2018-05-11T16:23:30.608Z,22.33
2018-05-11T16:25:56.900Z,24.47
2018-05-11T16:28:23.398Z,23.60
2018-05-11T16:30:49.548Z,25.37
2018-05-11T16:33:15.825Z,43.63
2018-05-11T16:35:42.061Z,26.10
2018-05-11T16:38:08.329Z,23.13
2018-05-11T16:40:34.990Z,24.60
2018-05-11T16:43:01.602Z,25.03
2018-05-11T16:45:28.186Z,24.70
2018-05-11T16:47:54.441Z,24.17
2018-05-11T16:50:20.693Z,25.60
2018-05-11T16:52:47.383Z,26.30
2018-05-11T16:55:14.592Z,26.47
2018-05-11T16:57:41.203Z,26.27
2018-05-11T17:00:07.508Z,26.23
2018-05-11T17:02:33.732Z,26.20
2018-05-11T17:04:59.968Z,26.97
2018-05-11T17:07:26.200Z,26.50
2018-05-11T17:09:52.465Z,27.00
2018-05-11T17:12:19.177Z,25.60
2018-05-11T17:14:45.468Z,25.13
2018-05-11T17:17:11.667Z,27.37
2018-05-11T17:19:38.314Z,27.73
2018-05-11T17:22:04.929Z,30.97
2018-05-11T17:24:31.556Z,29.13
2018-05-11T17:26:57.826Z,28.97
2018-05-11T17:29:24.062Z,31.27
2018-05-11T17:31:51.191Z,29.47
2018-05-11T17:34:17.419Z,28.97
2018-05-11T17:36:43.644Z,28.10
2018-05-11T17:39:09.904Z,27.53
2018-05-11T17:41:36.221Z,29.10
2018-05-11T17:44:09.320Z,27.00
2018-05-11T17:46:35.540Z,28.70
2018-05-11T17:49:04.724Z,28.67
2018-05-11T17:51:30.947Z,26.10
2018-05-11T17:53:57.573Z,27.03
2018-05-11T17:56:24.199Z,26.63
2018-05-11T17:58:50.420Z,28.87
2018-05-11T18:01:16.680Z,25.10
2018-05-11T18:03:42.949Z,27.30
2018-05-11T18:06:09.232Z,27.87
2018-05-11T18:08:35.464Z,27.60
2018-05-11T18:11:01.739Z,28.67
2018-05-11T18:13:27.969Z,26.30
2018-05-11T18:15:54.231Z,30.13
2018-05-11T18:18:20.478Z,28.70
2018-05-11T18:20:47.086Z,30.00
2018-05-11T18:23:13.301Z,27.87
2018-05-11T18:25:39.586Z,26.83
2018-05-11T18:28:05.816Z,27.67
2018-05-11T18:30:32.072Z,30.13
2018-05-11T18:32:58.322Z,28.87
2018-05-11T18:35:24.571Z,27.63
2018-05-11T18:37:51.513Z,30.80
2018-05-11T18:40:17.833Z,26.00
2018-05-11T18:42:44.103Z,26.83
2018-05-11T18:45:10.362Z,28.60
2018-05-11T18:47:43.417Z,29.83
2018-05-11T18:50:09.737Z,28.40
2018-05-11T18:52:35.942Z,29.60
2018-05-11T18:55:02.310Z,29.43
2018-05-11T18:57:28.593Z,31.23
2018-05-11T18:59:54.842Z,29.70
2018-05-11T19:02:21.120Z,30.30
2018-05-11T19:04:47.412Z,32.37
2018-05-11T19:07:14.054Z,31.47
2018-05-11T19:09:40.692Z,32.73
2018-05-11T19:12:07.321Z,31.03
2018-05-11T19:14:33.606Z,31.00
2018-05-11T19:17:00.734Z,32.73
2018-05-11T19:19:27.052Z,32.50
2018-05-11T19:21:53.287Z,33.40
2018-05-11T19:24:19.531Z,30.13
2018-05-11T19:26:45.812Z,31.80
2018-05-11T19:29:12.053Z,29.23
2018-05-11T19:31:38.314Z,31.03
2018-05-11T19:34:04.589Z,29.77
2018-05-11T19:36:31.271Z,33.30
2018-05-11T19:38:57.568Z,32.83
2018-05-11T19:41:24.567Z,33.43
2018-05-11T19:43:50.913Z,33.73
2018-05-11T19:46:17.193Z,34.10
2018-05-11T19:48:43.440Z,35.03
2018-05-11T19:51:09.697Z,34.10
2018-05-11T19:53:35.989Z,38.47
2018-05-11T19:56:02.432Z,36.03
2018-05-11T19:58:28.686Z,35.70
2018-05-11T20:00:54.924Z,40.20
2018-05-11T20:03:21.200Z,35.37
2018-05-11T20:05:47.466Z,36.00
2018-05-11T20:08:13.780Z,36.07
2018-05-11T20:10:42.343Z,34.93
2018-05-11T20:13:08.591Z,36.40
2018-05-11T20:15:34.902Z,37.13
2018-05-11T20:18:01.194Z,35.73
2018-05-11T20:20:27.469Z,35.60
2018-05-11T20:22:54.357Z,35.77
2018-05-11T20:25:20.617Z,38.27
2018-05-11T20:27:47.279Z,37.77
2018-05-11T20:30:13.658Z,36.23
2018-05-11T20:32:40.025Z,37.80
2018-05-11T20:35:06.747Z,36.13
2018-05-11T20:37:33.371Z,38.83
2018-05-11T20:39:59.619Z,34.70
2018-05-11T20:42:26.237Z,34.50
2018-05-11T20:44:53.366Z,36.27
2018-05-11T20:47:19.638Z,35.43
2018-05-11T20:49:45.918Z,36.17
2018-05-11T20:52:12.151Z,38.50
2018-05-11T20:54:38.531Z,35.77
2018-05-11T20:57:05.144Z,37.57
2018-05-11T20:59:31.551Z,33.10
2018-05-11T21:01:57.921Z,34.37
2018-05-11T21:04:24.154Z,34.63
2018-05-11T21:06:50.799Z,36.33
2018-05-11T21:09:17.718Z,37.90
2018-05-11T21:11:44.478Z,35.73
2018-05-11T21:14:11.112Z,37.17
2018-05-11T21:16:37.729Z,38.20
2018-05-11T21:19:03.947Z,37.10
2018-05-11T21:21:30.182Z,36.17
2018-05-11T21:23:57.457Z,34.60
2018-05-11T21:26:24.121Z,36.43
2018-05-11T21:28:50.312Z,36.53
2018-05-11T21:31:16.541Z,36.13
2018-05-11T21:33:43.609Z,37.30
2018-05-11T21:36:10.266Z,37.43
2018-05-11T21:38:36.695Z,37.33
2018-05-11T21:41:03.012Z,36.73
2018-05-11T21:43:29.284Z,36.50
2018-05-11T21:45:55.520Z,36.93
2018-05-11T21:48:21.742Z,36.90
2018-05-11T21:50:48.034Z,35.87
2018-05-11T21:53:14.279Z,38.07
2018-05-11T21:55:40.500Z,36.63
2018-05-11T21:58:06.770Z,37.80
2018-05-11T22:00:33.038Z,37.20
2018-05-11T22:02:59.259Z,37.30
2018-05-11T22:05:25.526Z,38.03
2018-05-11T22:07:51.751Z,38.40
2018-05-11T22:10:24.927Z,42.73
2018-05-11T22:12:51.167Z,41.53
2018-05-11T22:15:17.511Z,41.57
2018-05-11T22:17:43.784Z,39.80
2018-05-11T22:20:10.059Z,41.17
2018-05-11T22:22:36.260Z,40.33
2018-05-11T22:25:02.516Z,37.30
2018-05-11T22:27:35.890Z,37.77
2018-05-11T22:30:02.165Z,35.67
2018-05-11T22:32:28.415Z,35.93
2018-05-11T22:34:54.675Z,39.60
2018-05-11T22:37:20.902Z,36.27
2018-05-11T22:39:47.500Z,34.43
2018-05-11T22:42:13.741Z,34.33
2018-05-11T22:44:39.991Z,41.00
2018-05-11T22:47:06.233Z,35.50
2018-05-11T22:49:32.503Z,35.93
2018-05-11T22:51:58.748Z,41.10
2018-05-11T22:54:25.007Z,36.40
2018-05-11T22:56:51.240Z,37.13
2018-05-11T22:59:17.453Z,37.10
2018-05-11T23:01:43.685Z,37.17
2018-05-11T23:04:09.984Z,34.67
2018-05-11T23:06:36.195Z,36.10
2018-05-11T23:09:02.456Z,35.10
2018-05-11T23:11:28.688Z,37.50
2018-05-11T23:13:54.928Z,38.37
2018-05-11T23:16:21.199Z,35.37
2018-05-11T23:18:47.423Z,35.70
2018-05-11T23:21:13.644Z,34.77
2018-05-11T23:23:39.838Z,37.77
2018-05-11T23:26:06.440Z,38.67
2018-05-11T23:28:32.655Z,41.27
2018-05-11T23:30:58.851Z,38.90
2018-05-11T23:33:25.092Z,38.83
2018-05-11T23:35:51.321Z,38.30
2018-05-11T23:38:17.573Z,38.67
2018-05-11T23:40:43.829Z,38.10
2018-05-11T23:43:10.451Z,39.13
2018-05-11T23:45:36.678Z,37.10
2018-05-11T23:48:02.917Z,36.60
2018-05-11T23:50:29.165Z,34.23
2018-05-11T23:52:55.782Z,36.83
2018-05-11T23:55:23.274Z,36.03
2018-05-11T23:57:49.525Z,34.30
